sensor_id;sensor_type;location;lat;lon;timestamp;P1;durP1;ratioP1;P2;durP2;ratioP2
41263;SDS011;26998;48.714;9.414;2023-11-19T00:01:27;5.78;;;3.50;;
41263;SDS011;26998;48.714;9.414;2023-11-19T00:03:54;5.22;;;3.03;;
41263;SDS011;26998;48.714;9.414;2023-11-19T00:06:20;5.82;;;3.55;;
41263;SDS011;26998;48.714;9.414;2023-11-19T00:08:47;5.80;;;3.50;;
41263;SDS011;26998;48.714;9.414;2023-11-19T00:11:13;5.38;;;4.10;;
41263;SDS011;26998;48.714;9.414;2023-11-19T00:13:40;7.28;;;3.90;;
41263;SDS011;26998;48.714;9.414;2023-11-19T00:16:07;6.85;;;3.72;;
41263;SDS011;26998;48.714;9.414;2023-11-19T00:18:34;7.47;;;4.53;;
41263;SDS011;26998;48.714;9.414;2023-11-19T00:21:00;6.53;;;4.10;;
41263;SDS011;26998;48.714;9.414;2023-11-19T00:23:27;5.82;;;4.32;;
41263;SDS011;26998;48.714;9.414;2023-11-19T00:25:54;6.57;;;4.55;;
41263;SDS011;26998;48.714;9.414;2023-11-19T00:28:21;5.15;;;3.25;;
41263;SDS011;26998;48.714;9.414;2023-11-19T00:30:47;6.43;;;3.72;;
41263;SDS011;26998;48.714;9.414;2023-11-19T00:33:15;6.10;;;3.95;;
41263;SDS011;26998;48.714;9.414;2023-11-19T00:35:41;6.47;;;3.85;;
41263;SDS011;26998;48.714;9.414;2023-11-19T00:38:07;7.85;;;3.60;;
41263;SDS011;26998;48.714;9.414;2023-11-19T00:40:34;5.70;;;4.13;;
41263;SDS011;26998;48.714;9.414;2023-11-19T00:43:01;3.78;;;2.42;;
41263;SDS011;26998;48.714;9.414;2023-11-19T00:45:28;3.42;;;2.20;;
41263;SDS011;26998;48.714;9.414;2023-11-19T00:47:55;3.72;;;2.42;;
41263;SDS011;26998;48.714;9.414;2023-11-19T00:50:22;3.80;;;2.40;;
41263;SDS011;26998;48.714;9.414;2023-11-19T00:52:48;3.15;;;2.40;;
41263;SDS011;26998;48.714;9.414;2023-11-19T00:55:17;3.88;;;1.80;;
41263;SDS011;26998;48.714;9.414;2023-11-19T00:57:44;2.17;;;1.98;;
41263;SDS011;26998;48.714;9.414;2023-11-19T01:00:11;1.90;;;1.80;;
41263;SDS011;26998;48.714;9.414;2023-11-19T01:02:38;2.15;;;1.48;;
41263;SDS011;26998;48.714;9.414;2023-11-19T01:05:05;4.50;;;2.22;;
41263;SDS011;26998;48.714;9.414;2023-11-19T01:07:34;3.75;;;2.10;;
41263;SDS011;26998;48.714;9.414;2023-11-19T01:10:01;2.20;;;1.83;;
41263;SDS011;26998;48.714;9.414;2023-11-19T01:12:27;4.05;;;1.73;;
41263;SDS011;26998;48.714;9.414;2023-11-19T01:14:54;2.08;;;1.70;;
41263;SDS011;26998;48.714;9.414;2023-11-19T01:17:20;2.42;;;1.83;;
41263;SDS011;26998;48.714;9.414;2023-11-19T01:19:47;3.35;;;2.10;;
41263;SDS011;26998;48.714;9.414;2023-11-19T01:22:14;2.45;;;1.88;;
41263;SDS011;26998;48.714;9.414;2023-11-19T01:24:40;4.07;;;2.20;;
41263;SDS011;26998;48.714;9.414;2023-11-19T01:27:07;4.07;;;2.20;;
41263;SDS011;26998;48.714;9.414;2023-11-19T01:29:33;2.75;;;1.77;;
41263;SDS011;26998;48.714;9.414;2023-11-19T01:32:00;4.18;;;2.33;;
41263;SDS011;26998;48.714;9.414;2023-11-19T01:34:26;4.47;;;2.35;;
41263;SDS011;26998;48.714;9.414;2023-11-19T01:36:53;2.80;;;1.92;;
41263;SDS011;26998;48.714;9.414;2023-11-19T01:39:19;2.40;;;1.80;;
41263;SDS011;26998;48.714;9.414;2023-11-19T01:41:46;2.85;;;1.98;;
41263;SDS011;26998;48.714;9.414;2023-11-19T01:44:15;3.03;;;1.85;;
41263;SDS011;26998;48.714;9.414;2023-11-19T01:46:42;2.95;;;1.70;;
41263;SDS011;26998;48.714;9.414;2023-11-19T01:49:10;2.42;;;1.65;;
41263;SDS011;26998;48.714;9.414;2023-11-19T01:51:39;2.08;;;1.52;;
41263;SDS011;26998;48.714;9.414;2023-11-19T01:54:06;2.55;;;1.42;;
41263;SDS011;26998;48.714;9.414;2023-11-19T01:56:34;1.95;;;1.23;;
41263;SDS011;26998;48.714;9.414;2023-11-19T01:59:03;2.00;;;1.60;;
41263;SDS011;26998;48.714;9.414;2023-11-19T02:01:30;2.53;;;1.67;;
41263;SDS011;26998;48.714;9.414;2023-11-19T02:03:57;3.38;;;1.77;;
41263;SDS011;26998;48.714;9.414;2023-11-19T02:06:24;2.30;;;1.42;;
41263;SDS011;26998;48.714;9.414;2023-11-19T02:08:52;1.48;;;1.38;;
41263;SDS011;26998;48.714;9.414;2023-11-19T02:11:19;1.55;;;1.45;;
41263;SDS011;26998;48.714;9.414;2023-11-19T02:13:46;3.20;;;1.55;;
41263;SDS011;26998;48.714;9.414;2023-11-19T02:16:12;1.58;;;1.17;;
41263;SDS011;26998;48.714;9.414;2023-11-19T02:18:39;2.33;;;1.48;;
41263;SDS011;26998;48.714;9.414;2023-11-19T02:21:05;1.80;;;1.58;;
41263;SDS011;26998;48.714;9.414;2023-11-19T02:23:35;1.42;;;1.33;;
41263;SDS011;26998;48.714;9.414;2023-11-19T02:26:03;2.42;;;1.90;;
41263;SDS011;26998;48.714;9.414;2023-11-19T02:28:44;2.08;;;1.45;;
41263;SDS011;26998;48.714;9.414;2023-11-19T02:31:11;1.98;;;1.70;;
41263;SDS011;26998;48.714;9.414;2023-11-19T02:33:38;3.67;;;2.05;;
41263;SDS011;26998;48.714;9.414;2023-11-19T02:36:05;3.25;;;2.17;;
41263;SDS011;26998;48.714;9.414;2023-11-19T02:38:33;1.67;;;1.58;;
41263;SDS011;26998;48.714;9.414;2023-11-19T02:41:04;2.50;;;1.60;;
41263;SDS011;26998;48.714;9.414;2023-11-19T02:43:31;2.22;;;2.08;;
41263;SDS011;26998;48.714;9.414;2023-11-19T02:46:02;2.25;;;1.45;;
41263;SDS011;26998;48.714;9.414;2023-11-19T02:48:41;2.13;;;1.65;;
41263;SDS011;26998;48.714;9.414;2023-11-19T02:51:07;1.70;;;1.17;;
41263;SDS011;26998;48.714;9.414;2023-11-19T02:53:34;2.13;;;1.25;;
41263;SDS011;26998;48.714;9.414;2023-11-19T02:56:00;1.20;;;1.10;;
41263;SDS011;26998;48.714;9.414;2023-11-19T02:58:27;2.05;;;1.48;;
41263;SDS011;26998;48.714;9.414;2023-11-19T03:00:55;1.33;;;1.17;;
41263;SDS011;26998;48.714;9.414;2023-11-19T03:03:22;4.20;;;1.23;;
41263;SDS011;26998;48.714;9.414;2023-11-19T03:05:50;1.48;;;1.33;;
41263;SDS011;26998;48.714;9.414;2023-11-19T03:08:16;2.58;;;1.25;;
41263;SDS011;26998;48.714;9.414;2023-11-19T03:10:46;1.88;;;1.55;;
41263;SDS011;26998;48.714;9.414;2023-11-19T03:13:13;1.38;;;1.10;;
41263;SDS011;26998;48.714;9.414;2023-11-19T03:15:43;1.45;;;1.00;;
41263;SDS011;26998;48.714;9.414;2023-11-19T03:18:10;1.50;;;1.20;;
41263;SDS011;26998;48.714;9.414;2023-11-19T03:20:37;1.50;;;1.35;;
41263;SDS011;26998;48.714;9.414;2023-11-19T03:23:03;2.28;;;1.45;;
41263;SDS011;26998;48.714;9.414;2023-11-19T03:25:30;1.02;;;0.90;;
41263;SDS011;26998;48.714;9.414;2023-11-19T03:27:59;3.80;;;1.65;;
41263;SDS011;26998;48.714;9.414;2023-11-19T03:30:26;0.85;;;0.85;;
41263;SDS011;26998;48.714;9.414;2023-11-19T03:33:00;1.70;;;1.10;;
41263;SDS011;26998;48.714;9.414;2023-11-19T03:35:26;0.80;;;0.80;;
41263;SDS011;26998;48.714;9.414;2023-11-19T03:37:54;1.00;;;0.90;;
41263;SDS011;26998;48.714;9.414;2023-11-19T03:40:20;0.82;;;0.82;;
41263;SDS011;26998;48.714;9.414;2023-11-19T03:42:47;2.03;;;1.13;;
41263;SDS011;26998;48.714;9.414;2023-11-19T03:45:13;1.50;;;1.10;;
41263;SDS011;26998;48.714;9.414;2023-11-19T03:47:40;1.50;;;1.20;;
41263;SDS011;26998;48.714;9.414;2023-11-19T03:50:07;1.00;;;1.00;;
41263;SDS011;26998;48.714;9.414;2023-11-19T03:52:35;1.10;;;1.00;;
41263;SDS011;26998;48.714;9.414;2023-11-19T03:55:05;2.67;;;1.20;;
41263;SDS011;26998;48.714;9.414;2023-11-19T03:57:32;2.05;;;1.65;;
41263;SDS011;26998;48.714;9.414;2023-11-19T03:59:58;1.73;;;1.27;;
41263;SDS011;26998;48.714;9.414;2023-11-19T04:02:25;2.08;;;1.15;;
41263;SDS011;26998;48.714;9.414;2023-11-19T04:04:51;1.30;;;1.20;;
41263;SDS011;26998;48.714;9.414;2023-11-19T04:07:18;2.25;;;1.05;;
41263;SDS011;26998;48.714;9.414;2023-11-19T04:09:45;2.05;;;1.10;;
41263;SDS011;26998;48.714;9.414;2023-11-19T04:12:15;2.53;;;2.25;;
41263;SDS011;26998;48.714;9.414;2023-11-19T04:14:52;1.75;;;0.73;;
41263;SDS011;26998;48.714;9.414;2023-11-19T04:17:21;1.13;;;0.90;;
41263;SDS011;26998;48.714;9.414;2023-11-19T04:19:48;0.60;;;0.60;;
41263;SDS011;26998;48.714;9.414;2023-11-19T04:22:15;1.05;;;0.75;;
41263;SDS011;26998;48.714;9.414;2023-11-19T04:24:41;1.17;;;0.95;;
41263;SDS011;26998;48.714;9.414;2023-11-19T04:27:08;0.75;;;0.75;;
41263;SDS011;26998;48.714;9.414;2023-11-19T04:29:34;2.95;;;0.70;;
41263;SDS011;26998;48.714;9.414;2023-11-19T04:32:01;0.60;;;0.60;;
41263;SDS011;26998;48.714;9.414;2023-11-19T04:34:27;0.88;;;0.77;;
41263;SDS011;26998;48.714;9.414;2023-11-19T04:36:54;0.88;;;0.88;;
41263;SDS011;26998;48.714;9.414;2023-11-19T04:39:21;0.70;;;0.70;;
41263;SDS011;26998;48.714;9.414;2023-11-19T04:44:15;1.08;;;1.08;;
41263;SDS011;26998;48.714;9.414;2023-11-19T04:46:42;0.70;;;0.70;;
41263;SDS011;26998;48.714;9.414;2023-11-19T04:49:09;0.70;;;0.70;;
41263;SDS011;26998;48.714;9.414;2023-11-19T04:51:43;0.88;;;0.77;;
41263;SDS011;26998;48.714;9.414;2023-11-19T04:54:11;0.50;;;0.50;;
41263;SDS011;26998;48.714;9.414;2023-11-19T04:56:38;0.80;;;0.80;;
41263;SDS011;26998;48.714;9.414;2023-11-19T04:59:04;0.30;;;0.30;;
41263;SDS011;26998;48.714;9.414;2023-11-19T05:01:32;0.88;;;0.68;;
41263;SDS011;26998;48.714;9.414;2023-11-19T05:03:59;0.75;;;0.75;;
41263;SDS011;26998;48.714;9.414;2023-11-19T05:06:27;0.52;;;0.50;;
41263;SDS011;26998;48.714;9.414;2023-11-19T05:08:54;0.82;;;0.70;;
41263;SDS011;26998;48.714;9.414;2023-11-19T05:11:22;0.98;;;0.98;;
41263;SDS011;26998;48.714;9.414;2023-11-19T05:13:48;0.45;;;0.45;;
41263;SDS011;26998;48.714;9.414;2023-11-19T05:16:15;1.58;;;0.82;;
41263;SDS011;26998;48.714;9.414;2023-11-19T05:18:42;0.68;;;0.68;;
41263;SDS011;26998;48.714;9.414;2023-11-19T05:21:09;0.80;;;0.80;;
41263;SDS011;26998;48.714;9.414;2023-11-19T05:23:35;0.52;;;0.52;;
41263;SDS011;26998;48.714;9.414;2023-11-19T05:26:02;1.08;;;0.82;;
41263;SDS011;26998;48.714;9.414;2023-11-19T05:28:32;0.90;;;0.90;;
41263;SDS011;26998;48.714;9.414;2023-11-19T05:30:59;0.70;;;0.70;;
41263;SDS011;26998;48.714;9.414;2023-11-19T05:33:26;0.63;;;0.50;;
41263;SDS011;26998;48.714;9.414;2023-11-19T05:35:52;0.70;;;0.70;;
41263;SDS011;26998;48.714;9.414;2023-11-19T05:38:19;0.80;;;0.80;;
41263;SDS011;26998;48.714;9.414;2023-11-19T05:40:45;0.85;;;0.85;;
41263;SDS011;26998;48.714;9.414;2023-11-19T05:43:11;0.73;;;0.73;;
41263;SDS011;26998;48.714;9.414;2023-11-19T05:45:38;0.77;;;0.75;;
41263;SDS011;26998;48.714;9.414;2023-11-19T05:48:04;0.75;;;0.75;;
41263;SDS011;26998;48.714;9.414;2023-11-19T05:50:31;0.77;;;0.77;;
41263;SDS011;26998;48.714;9.414;2023-11-19T05:52:57;1.13;;;1.02;;
41263;SDS011;26998;48.714;9.414;2023-11-19T05:55:24;0.30;;;0.30;;
41263;SDS011;26998;48.714;9.414;2023-11-19T05:57:51;0.55;;;0.55;;
41263;SDS011;26998;48.714;9.414;2023-11-19T06:00:17;0.50;;;0.50;;
41263;SDS011;26998;48.714;9.414;2023-11-19T06:02:44;0.40;;;0.40;;
41263;SDS011;26998;48.714;9.414;2023-11-19T06:05:11;0.38;;;0.38;;
41263;SDS011;26998;48.714;9.414;2023-11-19T06:07:39;0.40;;;0.40;;
41263;SDS011;26998;48.714;9.414;2023-11-19T06:10:06;0.40;;;0.40;;
41263;SDS011;26998;48.714;9.414;2023-11-19T06:12:33;0.80;;;0.30;;
41263;SDS011;26998;48.714;9.414;2023-11-19T06:15:00;0.45;;;0.30;;
41263;SDS011;26998;48.714;9.414;2023-11-19T06:17:27;1.13;;;0.45;;
41263;SDS011;26998;48.714;9.414;2023-11-19T06:19:54;0.30;;;0.22;;
41263;SDS011;26998;48.714;9.414;2023-11-19T06:22:20;0.45;;;0.45;;
41263;SDS011;26998;48.714;9.414;2023-11-19T06:24:47;0.25;;;0.25;;
41263;SDS011;26998;48.714;9.414;2023-11-19T06:27:14;0.70;;;0.40;;
41263;SDS011;26998;48.714;9.414;2023-11-19T06:29:41;0.60;;;0.60;;
41263;SDS011;26998;48.714;9.414;2023-11-19T06:32:08;0.35;;;0.35;;
41263;SDS011;26998;48.714;9.414;2023-11-19T06:34:38;0.32;;;0.32;;
41263;SDS011;26998;48.714;9.414;2023-11-19T06:37:04;0.32;;;0.32;;
41263;SDS011;26998;48.714;9.414;2023-11-19T06:39:31;0.20;;;0.20;;
41263;SDS011;26998;48.714;9.414;2023-11-19T06:41:57;0.50;;;0.50;;
41263;SDS011;26998;48.714;9.414;2023-11-19T06:44:24;0.22;;;0.22;;
41263;SDS011;26998;48.714;9.414;2023-11-19T06:46:51;0.55;;;0.32;;
41263;SDS011;26998;48.714;9.414;2023-11-19T06:49:18;0.05;;;0.05;;
41263;SDS011;26998;48.714;9.414;2023-11-19T06:51:47;0.40;;;0.20;;
41263;SDS011;26998;48.714;9.414;2023-11-19T06:54:14;0.13;;;0.13;;
41263;SDS011;26998;48.714;9.414;2023-11-19T06:56:40;0.25;;;0.20;;
41263;SDS011;26998;48.714;9.414;2023-11-19T06:59:07;0.52;;;0.50;;
41263;SDS011;26998;48.714;9.414;2023-11-19T07:01:34;0.30;;;0.30;;
41263;SDS011;26998;48.714;9.414;2023-11-19T07:04:01;0.32;;;0.32;;
41263;SDS011;26998;48.714;9.414;2023-11-19T07:06:29;2.30;;;0.10;;
41263;SDS011;26998;48.714;9.414;2023-11-19T07:08:58;0.22;;;0.13;;
41263;SDS011;26998;48.714;9.414;2023-11-19T07:11:27;0.30;;;0.22;;
41263;SDS011;26998;48.714;9.414;2023-11-19T07:13:54;0.40;;;0.40;;
41263;SDS011;26998;48.714;9.414;2023-11-19T07:16:21;0.70;;;0.30;;
41263;SDS011;26998;48.714;9.414;2023-11-19T07:18:48;0.50;;;0.40;;
41263;SDS011;26998;48.714;9.414;2023-11-19T07:21:15;0.57;;;0.30;;
41263;SDS011;26998;48.714;9.414;2023-11-19T07:23:42;0.17;;;0.15;;
41263;SDS011;26998;48.714;9.414;2023-11-19T07:26:11;0.17;;;0.17;;
41263;SDS011;26998;48.714;9.414;2023-11-19T07:28:38;0.20;;;0.20;;
41263;SDS011;26998;48.714;9.414;2023-11-19T07:31:05;0.32;;;0.32;;
41263;SDS011;26998;48.714;9.414;2023-11-19T07:33:32;0.20;;;0.20;;
41263;SDS011;26998;48.714;9.414;2023-11-19T07:35:59;0.43;;;0.38;;
41263;SDS011;26998;48.714;9.414;2023-11-19T07:38:26;0.20;;;0.20;;
41263;SDS011;26998;48.714;9.414;2023-11-19T07:40:53;0.20;;;0.20;;
41263;SDS011;26998;48.714;9.414;2023-11-19T07:43:23;0.53;;;0.20;;
41263;SDS011;26998;48.714;9.414;2023-11-19T07:45:50;0.30;;;0.30;;
41263;SDS011;26998;48.714;9.414;2023-11-19T07:48:16;0.50;;;0.50;;
41263;SDS011;26998;48.714;9.414;2023-11-19T07:50:43;0.20;;;0.20;;
41263;SDS011;26998;48.714;9.414;2023-11-19T07:53:10;0.22;;;0.20;;
41263;SDS011;26998;48.714;9.414;2023-11-19T07:55:37;0.30;;;0.30;;
41263;SDS011;26998;48.714;9.414;2023-11-19T08:00:34;0.10;;;0.10;;
41263;SDS011;26998;48.714;9.414;2023-11-19T08:03:01;0.20;;;0.20;;
41263;SDS011;26998;48.714;9.414;2023-11-19T08:05:28;0.35;;;0.35;;
41263;SDS011;26998;48.714;9.414;2023-11-19T08:07:55;0.47;;;0.20;;
41263;SDS011;26998;48.714;9.414;2023-11-19T08:10:21;0.20;;;0.20;;
41263;SDS011;26998;48.714;9.414;2023-11-19T08:12:48;0.10;;;0.10;;
41263;SDS011;26998;48.714;9.414;2023-11-19T08:15:15;0.45;;;0.30;;
41263;SDS011;26998;48.714;9.414;2023-11-19T08:17:56;0.43;;;0.43;;
41263;SDS011;26998;48.714;9.414;2023-11-19T08:20:23;0.35;;;0.32;;
41263;SDS011;26998;48.714;9.414;2023-11-19T08:22:50;0.93;;;0.50;;
41263;SDS011;26998;48.714;9.414;2023-11-19T08:25:16;0.30;;;0.30;;
41263;SDS011;26998;48.714;9.414;2023-11-19T08:27:43;0.10;;;0.10;;
41263;SDS011;26998;48.714;9.414;2023-11-19T08:30:10;0.10;;;0.10;;
41263;SDS011;26998;48.714;9.414;2023-11-19T08:32:37;0.75;;;0.20;;
41263;SDS011;26998;48.714;9.414;2023-11-19T08:35:05;0.13;;;0.13;;
41263;SDS011;26998;48.714;9.414;2023-11-19T08:37:31;0.45;;;0.20;;
41263;SDS011;26998;48.714;9.414;2023-11-19T08:39:58;0.55;;;0.20;;
41263;SDS011;26998;48.714;9.414;2023-11-19T08:42:25;1.05;;;0.40;;
41263;SDS011;26998;48.714;9.414;2023-11-19T08:44:51;0.20;;;0.20;;
41263;SDS011;26998;48.714;9.414;2023-11-19T08:47:18;0.13;;;0.13;;
41263;SDS011;26998;48.714;9.414;2023-11-19T08:49:45;0.73;;;0.38;;
41263;SDS011;26998;48.714;9.414;2023-11-19T08:52:11;0.20;;;0.20;;
41263;SDS011;26998;48.714;9.414;2023-11-19T08:54:41;0.38;;;0.20;;
41263;SDS011;26998;48.714;9.414;2023-11-19T08:57:09;0.28;;;0.28;;
41263;SDS011;26998;48.714;9.414;2023-11-19T08:59:36;0.20;;;0.20;;
41263;SDS011;26998;48.714;9.414;2023-11-19T09:02:02;0.25;;;0.25;;
41263;SDS011;26998;48.714;9.414;2023-11-19T09:04:29;0.20;;;0.20;;
41263;SDS011;26998;48.714;9.414;2023-11-19T09:06:57;0.73;;;0.20;;
41263;SDS011;26998;48.714;9.414;2023-11-19T09:09:24;0.65;;;0.30;;
41263;SDS011;26998;48.714;9.414;2023-11-19T09:11:50;0.30;;;0.30;;
41263;SDS011;26998;48.714;9.414;2023-11-19T09:14:17;0.75;;;0.32;;
41263;SDS011;26998;48.714;9.414;2023-11-19T09:16:44;0.70;;;0.20;;
41263;SDS011;26998;48.714;9.414;2023-11-19T09:19:11;0.30;;;0.30;;
41263;SDS011;26998;48.714;9.414;2023-11-19T09:21:37;0.20;;;0.20;;
41263;SDS011;26998;48.714;9.414;2023-11-19T09:24:04;0.30;;;0.30;;
41263;SDS011;26998;48.714;9.414;2023-11-19T09:26:31;0.57;;;0.30;;
41263;SDS011;26998;48.714;9.414;2023-11-19T09:28:58;0.22;;;0.20;;
41263;SDS011;26998;48.714;9.414;2023-11-19T09:31:25;0.30;;;0.30;;
41263;SDS011;26998;48.714;9.414;2023-11-19T09:33:51;0.40;;;0.30;;
41263;SDS011;26998;48.714;9.414;2023-11-19T09:36:18;0.30;;;0.28;;
41263;SDS011;26998;48.714;9.414;2023-11-19T09:38:45;0.20;;;0.20;;
41263;SDS011;26998;48.714;9.414;2023-11-19T09:41:11;3.13;;;0.30;;
41263;SDS011;26998;48.714;9.414;2023-11-19T09:43:41;0.20;;;0.20;;
41263;SDS011;26998;48.714;9.414;2023-11-19T09:46:09;0.70;;;0.20;;
41263;SDS011;26998;48.714;9.414;2023-11-19T09:48:37;0.75;;;0.30;;
41263;SDS011;26998;48.714;9.414;2023-11-19T09:51:04;0.28;;;0.20;;
41263;SDS011;26998;48.714;9.414;2023-11-19T09:53:33;1.13;;;0.25;;
41263;SDS011;26998;48.714;9.414;2023-11-19T09:56:01;0.52;;;0.30;;
41263;SDS011;26998;48.714;9.414;2023-11-19T09:58:29;0.43;;;0.43;;
41263;SDS011;26998;48.714;9.414;2023-11-19T10:00:57;0.43;;;0.30;;
41263;SDS011;26998;48.714;9.414;2023-11-19T10:03:44;1.38;;;0.40;;
41263;SDS011;26998;48.714;9.414;2023-11-19T10:06:15;0.57;;;0.25;;
41263;SDS011;26998;48.714;9.414;2023-11-19T10:08:44;0.13;;;0.13;;
41263;SDS011;26998;48.714;9.414;2023-11-19T10:11:11;0.32;;;0.20;;
41263;SDS011;26998;48.714;9.414;2023-11-19T10:13:37;0.30;;;0.30;;
41263;SDS011;26998;48.714;9.414;2023-11-19T10:16:07;1.08;;;0.30;;
41263;SDS011;26998;48.714;9.414;2023-11-19T10:18:46;0.45;;;0.30;;
41263;SDS011;26998;48.714;9.414;2023-11-19T10:21:14;0.35;;;0.30;;
41263;SDS011;26998;48.714;9.414;2023-11-19T10:23:47;0.40;;;0.20;;
41263;SDS011;26998;48.714;9.414;2023-11-19T10:26:14;0.57;;;0.40;;
41263;SDS011;26998;48.714;9.414;2023-11-19T10:28:41;0.73;;;0.30;;
41263;SDS011;26998;48.714;9.414;2023-11-19T10:31:08;2.92;;;0.50;;
41263;SDS011;26998;48.714;9.414;2023-11-19T10:33:35;0.82;;;0.40;;
41263;SDS011;26998;48.714;9.414;2023-11-19T10:36:01;0.20;;;0.20;;
41263;SDS011;26998;48.714;9.414;2023-11-19T10:38:28;0.20;;;0.17;;
41263;SDS011;26998;48.714;9.414;2023-11-19T10:40:55;0.28;;;0.20;;
41263;SDS011;26998;48.714;9.414;2023-11-19T10:43:22;0.30;;;0.30;;
41263;SDS011;26998;48.714;9.414;2023-11-19T10:45:49;0.47;;;0.43;;
41263;SDS011;26998;48.714;9.414;2023-11-19T10:48:19;0.25;;;0.25;;
41263;SDS011;26998;48.714;9.414;2023-11-19T10:50:46;0.40;;;0.25;;
41263;SDS011;26998;48.714;9.414;2023-11-19T10:53:16;0.20;;;0.20;;
41263;SDS011;26998;48.714;9.414;2023-11-19T10:55:46;0.20;;;0.20;;
41263;SDS011;26998;48.714;9.414;2023-11-19T10:58:15;1.85;;;0.30;;
41263;SDS011;26998;48.714;9.414;2023-11-19T11:00:54;0.77;;;0.55;;
41263;SDS011;26998;48.714;9.414;2023-11-19T11:03:26;0.35;;;0.30;;
41263;SDS011;26998;48.714;9.414;2023-11-19T11:05:58;0.50;;;0.40;;
41263;SDS011;26998;48.714;9.414;2023-11-19T11:08:28;0.20;;;0.20;;
41263;SDS011;26998;48.714;9.414;2023-11-19T11:10:57;0.57;;;0.30;;
41263;SDS011;26998;48.714;9.414;2023-11-19T11:13:26;0.10;;;0.10;;
41263;SDS011;26998;48.714;9.414;2023-11-19T11:15:53;0.80;;;0.45;;
41263;SDS011;26998;48.714;9.414;2023-11-19T11:18:22;0.10;;;0.10;;
41263;SDS011;26998;48.714;9.414;2023-11-19T11:20:49;0.10;;;0.10;;
41263;SDS011;26998;48.714;9.414;2023-11-19T11:28:53;0.20;;;0.20;;
41263;SDS011;26998;48.714;9.414;2023-11-19T11:31:29;1.05;;;0.70;;
41263;SDS011;26998;48.714;9.414;2023-11-19T11:34:20;0.20;;;0.20;;
41263;SDS011;26998;48.714;9.414;2023-11-19T11:37:06;0.20;;;0.20;;
41263;SDS011;26998;48.714;9.414;2023-11-19T11:39:35;0.20;;;0.20;;
41263;SDS011;26998;48.714;9.414;2023-11-19T11:44:58;0.80;;;0.40;;
41263;SDS011;26998;48.714;9.414;2023-11-19T11:50:10;0.70;;;0.35;;
41263;SDS011;26998;48.714;9.414;2023-11-19T11:58:18;0.28;;;0.28;;
41263;SDS011;26998;48.714;9.414;2023-11-19T12:00:48;0.38;;;0.30;;
41263;SDS011;26998;48.714;9.414;2023-11-19T12:03:17;0.28;;;0.22;;
41263;SDS011;26998;48.714;9.414;2023-11-19T12:05:47;1.50;;;0.47;;
41263;SDS011;26998;48.714;9.414;2023-11-19T12:08:15;2.03;;;0.52;;
41263;SDS011;26998;48.714;9.414;2023-11-19T12:10:51;1.67;;;0.20;;
41263;SDS011;26998;48.714;9.414;2023-11-19T12:13:20;0.47;;;0.40;;
41263;SDS011;26998;48.714;9.414;2023-11-19T12:18:26;0.32;;;0.30;;
41263;SDS011;26998;48.714;9.414;2023-11-19T12:20:55;1.15;;;0.70;;
41263;SDS011;26998;48.714;9.414;2023-11-19T12:23:22;0.70;;;0.30;;
41263;SDS011;26998;48.714;9.414;2023-11-19T12:25:53;1.58;;;0.22;;
41263;SDS011;26998;48.714;9.414;2023-11-19T12:28:20;0.98;;;0.40;;
41263;SDS011;26998;48.714;9.414;2023-11-19T12:30:46;0.57;;;0.30;;
41263;SDS011;26998;48.714;9.414;2023-11-19T12:33:16;2.03;;;0.30;;
41263;SDS011;26998;48.714;9.414;2023-11-19T12:35:44;0.25;;;0.25;;
41263;SDS011;26998;48.714;9.414;2023-11-19T12:38:21;0.20;;;0.15;;
41263;SDS011;26998;48.714;9.414;2023-11-19T12:41:08;0.20;;;0.15;;
41263;SDS011;26998;48.714;9.414;2023-11-19T12:43:38;0.20;;;0.20;;
41263;SDS011;26998;48.714;9.414;2023-11-19T12:46:21;0.20;;;0.20;;
41263;SDS011;26998;48.714;9.414;2023-11-19T12:48:50;0.98;;;0.38;;
41263;SDS011;26998;48.714;9.414;2023-11-19T12:51:18;0.15;;;0.15;;
41263;SDS011;26998;48.714;9.414;2023-11-19T12:53:49;0.57;;;0.30;;
41263;SDS011;26998;48.714;9.414;2023-11-19T12:56:17;0.70;;;0.50;;
41263;SDS011;26998;48.714;9.414;2023-11-19T12:58:45;0.57;;;0.40;;
41263;SDS011;26998;48.714;9.414;2023-11-19T13:01:15;0.50;;;0.50;;
41263;SDS011;26998;48.714;9.414;2023-11-19T13:03:43;2.63;;;0.40;;
41263;SDS011;26998;48.714;9.414;2023-11-19T13:06:12;0.40;;;0.40;;
41263;SDS011;26998;48.714;9.414;2023-11-19T13:08:40;0.25;;;0.15;;
41263;SDS011;26998;48.714;9.414;2023-11-19T13:11:12;0.43;;;0.20;;
41263;SDS011;26998;48.714;9.414;2023-11-19T13:13:55;0.30;;;0.20;;
41263;SDS011;26998;48.714;9.414;2023-11-19T13:16:27;0.10;;;0.10;;
41263;SDS011;26998;48.714;9.414;2023-11-19T13:18:54;0.20;;;0.20;;
41263;SDS011;26998;48.714;9.414;2023-11-19T13:21:21;0.43;;;0.10;;
41263;SDS011;26998;48.714;9.414;2023-11-19T13:23:47;0.85;;;0.40;;
41263;SDS011;26998;48.714;9.414;2023-11-19T13:26:14;0.30;;;0.30;;
41263;SDS011;26998;48.714;9.414;2023-11-19T13:28:40;0.68;;;0.38;;
41263;SDS011;26998;48.714;9.414;2023-11-19T13:31:07;3.83;;;0.45;;
41263;SDS011;26998;48.714;9.414;2023-11-19T13:33:34;0.80;;;0.55;;
41263;SDS011;26998;48.714;9.414;2023-11-19T13:36:01;1.13;;;0.30;;
41263;SDS011;26998;48.714;9.414;2023-11-19T13:38:29;0.30;;;0.30;;
41263;SDS011;26998;48.714;9.414;2023-11-19T13:40:56;0.77;;;0.77;;
41263;SDS011;26998;48.714;9.414;2023-11-19T13:43:23;0.32;;;0.32;;
41263;SDS011;26998;48.714;9.414;2023-11-19T13:45:50;0.55;;;0.45;;
41263;SDS011;26998;48.714;9.414;2023-11-19T13:48:17;0.47;;;0.47;;
41263;SDS011;26998;48.714;9.414;2023-11-19T13:50:44;0.25;;;0.25;;
41263;SDS011;26998;48.714;9.414;2023-11-19T13:53:11;0.30;;;0.30;;
41263;SDS011;26998;48.714;9.414;2023-11-19T13:55:38;1.27;;;0.95;;
41263;SDS011;26998;48.714;9.414;2023-11-19T13:58:05;0.20;;;0.20;;
41263;SDS011;26998;48.714;9.414;2023-11-19T14:00:32;1.08;;;0.30;;
41263;SDS011;26998;48.714;9.414;2023-11-19T14:03:00;0.85;;;0.20;;
41263;SDS011;26998;48.714;9.414;2023-11-19T14:05:27;3.38;;;0.82;;
41263;SDS011;26998;48.714;9.414;2023-11-19T14:07:57;0.30;;;0.30;;
41263;SDS011;26998;48.714;9.414;2023-11-19T14:10:24;0.70;;;0.40;;
41263;SDS011;26998;48.714;9.414;2023-11-19T14:12:51;0.55;;;0.30;;
41263;SDS011;26998;48.714;9.414;2023-11-19T14:15:18;0.25;;;0.25;;
41263;SDS011;26998;48.714;9.414;2023-11-19T14:17:45;0.85;;;0.80;;
41263;SDS011;26998;48.714;9.414;2023-11-19T14:20:12;1.38;;;0.30;;
41263;SDS011;26998;48.714;9.414;2023-11-19T14:22:42;0.35;;;0.35;;
41263;SDS011;26998;48.714;9.414;2023-11-19T14:25:10;0.73;;;0.30;;
41263;SDS011;26998;48.714;9.414;2023-11-19T14:27:37;0.43;;;0.40;;
41263;SDS011;26998;48.714;9.414;2023-11-19T14:30:05;1.55;;;0.30;;
41263;SDS011;26998;48.714;9.414;2023-11-19T14:32:33;0.30;;;0.30;;
41263;SDS011;26998;48.714;9.414;2023-11-19T14:35:02;1.13;;;0.40;;
41263;SDS011;26998;48.714;9.414;2023-11-19T14:37:29;0.55;;;0.40;;
41263;SDS011;26998;48.714;9.414;2023-11-19T14:39:56;0.43;;;0.20;;
41263;SDS011;26998;48.714;9.414;2023-11-19T14:42:23;0.68;;;0.30;;
41263;SDS011;26998;48.714;9.414;2023-11-19T14:44:53;0.75;;;0.40;;
41263;SDS011;26998;48.714;9.414;2023-11-19T14:47:20;2.87;;;0.80;;
41263;SDS011;26998;48.714;9.414;2023-11-19T14:49:47;2.72;;;0.60;;
41263;SDS011;26998;48.714;9.414;2023-11-19T14:52:15;0.68;;;0.30;;
41263;SDS011;26998;48.714;9.414;2023-11-19T14:54:43;0.73;;;0.45;;
41263;SDS011;26998;48.714;9.414;2023-11-19T14:57:10;0.50;;;0.28;;
41263;SDS011;26998;48.714;9.414;2023-11-19T14:59:37;1.52;;;0.60;;
41263;SDS011;26998;48.714;9.414;2023-11-19T15:02:04;0.55;;;0.50;;
41263;SDS011;26998;48.714;9.414;2023-11-19T15:04:31;0.43;;;0.38;;
41263;SDS011;26998;48.714;9.414;2023-11-19T15:07:00;0.22;;;0.22;;
41263;SDS011;26998;48.714;9.414;2023-11-19T15:09:27;0.22;;;0.22;;
41263;SDS011;26998;48.714;9.414;2023-11-19T15:11:54;0.30;;;0.30;;
41263;SDS011;26998;48.714;9.414;2023-11-19T15:14:21;0.30;;;0.30;;
41263;SDS011;26998;48.714;9.414;2023-11-19T15:16:48;0.30;;;0.20;;